VEGK Airport Information

Runway Information
Runway 11 Length 9000 ft width 150 ft
Elevation ft Threshold ft Heading 113
Runway 29 Length 9000 ft Width 150 ft
Elevation ft Threshold ft Heading 293
Airport Frequencies
Type APP Name APP Frequency 122.7 MHZ
Type TWR Name TWR Frequency 118.5 MHZ
Airport Navaids
Type NDB Name Gorakhpur Frequency 278 KHZ
Airport Weather Information & NOTAM
ADDS - METARS form results

(0926 UTC 27 June 2022)
Data provider http://aviationweather.gov/metar/data/
 
Forecast for: VEGK (GORAKHPUR (IN-AF, IN)
Text: TAF VEGK 270330Z 2706/2718 12008KT 6000 SCT030 BKN090
Forecast period: 0600 to 1800 UTC 27 June 2022
Forecast type: FROM: standard forecast or significant change
Winds: from the ESE (120 degrees) at 9 MPH (8 knots; 4.1 m/s)
Visibility: 4 miles (6 km)
Ceiling: 9000 feet AGL
Clouds: scattered clouds at 3000 feet AGL
broken clouds at 9000 feet AGL
Weather: no significant weather forecast for this period
Text: TEMPO 2711/2713 27015G25KT 4000 TSRA SCT020 FEW030CB BKN090
Forecast period: 1100 to 1300 UTC 27 June 2022
Forecast type: TEMPORARY: The following changes expected for less than half the time period
Winds: from the W (270 degrees) at 17 MPH (15 knots; 7.7 m/s)
gusting to 29 MPH (25 knots; 12.9 m/s)
Visibility: 2.49 miles (4.01 km)
Ceiling: 9000 feet AGL
Clouds: scattered clouds at 2000 feet AGL
few clouds at 3000 feet AGL
broken clouds at 9000 feet AGL
Weather: TSRA  (rain associated with thunderstorm(s))